sensor_id;sensor_type;location;lat;lon;timestamp;pressure;altitude;pressure_sealevel;temperature;humidity
62402;BME280;48440;51.224;22.506;2023-05-02T00:02:15;99296.34;;;10.22;44.42
62402;BME280;48440;51.224;22.506;2023-05-02T00:04:43;99295.16;;;10.17;44.56
62402;BME280;48440;51.224;22.506;2023-05-02T00:07:09;99292.81;;;10.21;43.97
62402;BME280;48440;51.224;22.506;2023-05-02T00:09:35;99292.13;;;10.14;44.19
62402;BME280;48440;51.224;22.506;2023-05-02T00:12:01;99285.09;;;10.13;44.43
62402;BME280;48440;51.224;22.506;2023-05-02T00:14:27;99290.53;;;10.13;44.63
62402;BME280;48440;51.224;22.506;2023-05-02T00:16:53;99288.88;;;10.12;44.68
62402;BME280;48440;51.224;22.506;2023-05-02T00:19:19;99292.34;;;10.07;44.83
62402;BME280;48440;51.224;22.506;2023-05-02T00:21:47;99294.50;;;10.05;45.28
62402;BME280;48440;51.224;22.506;2023-05-02T00:24:22;99284.72;;;10.04;45.02
62402;BME280;48440;51.224;22.506;2023-05-02T00:26:47;99288.81;;;10.07;44.91
62402;BME280;48440;51.224;22.506;2023-05-02T00:29:21;99283.19;;;10.13;44.94
62402;BME280;48440;51.224;22.506;2023-05-02T00:31:53;99283.50;;;10.17;45.29
62402;BME280;48440;51.224;22.506;2023-05-02T00:34:48;99289.13;;;10.10;45.00
62402;BME280;48440;51.224;22.506;2023-05-02T00:38:03;99286.09;;;10.07;45.14
62402;BME280;48440;51.224;22.506;2023-05-02T00:40:50;99285.53;;;10.05;45.04
62402;BME280;48440;51.224;22.506;2023-05-02T00:43:41;99291.53;;;10.07;45.04
62402;BME280;48440;51.224;22.506;2023-05-02T00:46:20;99278.28;;;10.10;44.89
62402;BME280;48440;51.224;22.506;2023-05-02T00:49:20;99279.88;;;10.06;45.04
62402;BME280;48440;51.224;22.506;2023-05-02T00:52:18;99282.00;;;10.04;45.37
62402;BME280;48440;51.224;22.506;2023-05-02T00:55:03;99282.19;;;9.98;45.35
62402;BME280;48440;51.224;22.506;2023-05-02T00:58:11;99286.84;;;10.02;45.72
62402;BME280;48440;51.224;22.506;2023-05-02T01:15:39;99270.19;;;9.94;46.45
62402;BME280;48440;51.224;22.506;2023-05-02T01:18:19;99278.00;;;9.90;47.63
62402;BME280;48440;51.224;22.506;2023-05-02T01:20:57;99278.78;;;9.85;47.77
62402;BME280;48440;51.224;22.506;2023-05-02T01:26:48;99271.06;;;9.77;48.13
62402;BME280;48440;51.224;22.506;2023-05-02T01:29:39;99267.47;;;9.72;48.32
62402;BME280;48440;51.224;22.506;2023-05-02T01:32:38;99262.22;;;9.65;48.30
62402;BME280;48440;51.224;22.506;2023-05-02T01:35:26;99256.44;;;9.57;48.17
62402;BME280;48440;51.224;22.506;2023-05-02T01:38:02;99261.84;;;9.57;48.37
62402;BME280;48440;51.224;22.506;2023-05-02T01:43:48;99246.75;;;9.44;48.06
62402;BME280;48440;51.224;22.506;2023-05-02T01:46:29;99249.47;;;9.44;48.08
62402;BME280;48440;51.224;22.506;2023-05-02T01:49:16;99250.94;;;9.51;47.99
62402;BME280;48440;51.224;22.506;2023-05-02T01:51:47;99248.22;;;9.51;48.12
62402;BME280;48440;51.224;22.506;2023-05-02T01:54:16;99244.13;;;9.49;47.79
62402;BME280;48440;51.224;22.506;2023-05-02T01:56:43;99240.00;;;9.46;47.35
62402;BME280;48440;51.224;22.506;2023-05-02T01:59:18;99236.06;;;9.54;47.81
62402;BME280;48440;51.224;22.506;2023-05-02T02:01:45;99238.78;;;9.54;47.64
62402;BME280;48440;51.224;22.506;2023-05-02T02:04:14;99227.13;;;9.53;47.67
62402;BME280;48440;51.224;22.506;2023-05-02T02:06:45;99229.19;;;9.46;47.76
62402;BME280;48440;51.224;22.506;2023-05-02T02:09:14;99227.53;;;9.45;47.89
62402;BME280;48440;51.224;22.506;2023-05-02T02:11:56;99223.25;;;9.49;48.01
62402;BME280;48440;51.224;22.506;2023-05-02T02:14:25;99223.03;;;9.51;47.81
62402;BME280;48440;51.224;22.506;2023-05-02T02:16:54;99221.22;;;9.40;48.07
62402;BME280;48440;51.224;22.506;2023-05-02T02:19:26;99220.97;;;9.41;48.19
62402;BME280;48440;51.224;22.506;2023-05-02T02:21:57;99224.84;;;9.45;48.32
62402;BME280;48440;51.224;22.506;2023-05-02T02:24:29;99214.50;;;9.42;48.59
62402;BME280;48440;51.224;22.506;2023-05-02T02:27:02;99214.16;;;9.39;48.08
62402;BME280;48440;51.224;22.506;2023-05-02T02:29:28;99212.28;;;9.39;48.05
62402;BME280;48440;51.224;22.506;2023-05-02T02:31:59;99220.91;;;9.36;48.56
62402;BME280;48440;51.224;22.506;2023-05-02T02:42:28;99215.44;;;9.31;48.66
62402;BME280;48440;51.224;22.506;2023-05-02T02:48:06;99208.38;;;9.30;48.95
62402;BME280;48440;51.224;22.506;2023-05-02T02:53:33;99209.78;;;9.33;48.86
62402;BME280;48440;51.224;22.506;2023-05-02T02:56:13;99211.66;;;9.32;49.13
62402;BME280;48440;51.224;22.506;2023-05-02T03:01:20;99203.53;;;9.32;49.30
62402;BME280;48440;51.224;22.506;2023-05-02T03:03:47;99203.78;;;9.31;49.48
62402;BME280;48440;51.224;22.506;2023-05-02T03:06:16;99206.50;;;9.31;49.66
62402;BME280;48440;51.224;22.506;2023-05-02T03:08:47;99206.81;;;9.34;49.35
62402;BME280;48440;51.224;22.506;2023-05-02T03:11:45;99203.03;;;9.35;49.39
62402;BME280;48440;51.224;22.506;2023-05-02T03:14:34;99214.16;;;9.39;49.45
62402;BME280;48440;51.224;22.506;2023-05-02T03:17:25;99207.34;;;9.36;49.48
62402;BME280;48440;51.224;22.506;2023-05-02T03:19:53;99226.06;;;9.38;49.46
62402;BME280;48440;51.224;22.506;2023-05-02T03:22:19;99214.66;;;9.36;49.87
62402;BME280;48440;51.224;22.506;2023-05-02T03:24:46;99212.16;;;9.29;49.90
62402;BME280;48440;51.224;22.506;2023-05-02T03:27:14;99209.94;;;9.26;50.25
62402;BME280;48440;51.224;22.506;2023-05-02T03:29:40;99205.25;;;9.22;50.39
62402;BME280;48440;51.224;22.506;2023-05-02T03:32:06;99206.66;;;9.24;50.74
62402;BME280;48440;51.224;22.506;2023-05-02T03:34:31;99213.94;;;9.24;50.77
62402;BME280;48440;51.224;22.506;2023-05-02T03:37:08;99214.19;;;9.22;50.16
62402;BME280;48440;51.224;22.506;2023-05-02T03:39:36;99216.09;;;9.22;50.94
62402;BME280;48440;51.224;22.506;2023-05-02T03:42:05;99215.34;;;9.26;50.48
62402;BME280;48440;51.224;22.506;2023-05-02T03:44:31;99212.16;;;9.29;50.60
62402;BME280;48440;51.224;22.506;2023-05-02T03:47:08;99211.91;;;9.31;50.64
62402;BME280;48440;51.224;22.506;2023-05-02T03:49:40;99223.22;;;9.28;50.44
62402;BME280;48440;51.224;22.506;2023-05-02T03:52:06;99221.34;;;9.28;50.85
62402;BME280;48440;51.224;22.506;2023-05-02T03:54:40;99228.88;;;9.26;51.09
62402;BME280;48440;51.224;22.506;2023-05-02T03:57:14;99232.81;;;9.35;50.98
62402;BME280;48440;51.224;22.506;2023-05-02T03:59:49;99229.09;;;9.41;50.84
62402;BME280;48440;51.224;22.506;2023-05-02T04:04:50;99242.47;;;9.48;50.97
62402;BME280;48440;51.224;22.506;2023-05-02T04:07:16;99231.47;;;9.55;50.78
62402;BME280;48440;51.224;22.506;2023-05-02T04:09:44;99231.16;;;9.51;51.25
62402;BME280;48440;51.224;22.506;2023-05-02T04:12:10;99238.78;;;9.54;51.24
62402;BME280;48440;51.224;22.506;2023-05-02T04:14:36;99236.72;;;9.61;51.20
62402;BME280;48440;51.224;22.506;2023-05-02T04:17:02;99235.38;;;9.64;51.30
62402;BME280;48440;51.224;22.506;2023-05-02T04:19:28;99240.38;;;9.72;51.36
62402;BME280;48440;51.224;22.506;2023-05-02T04:21:54;99249.06;;;9.74;51.34
62402;BME280;48440;51.224;22.506;2023-05-02T04:24:21;99232.56;;;9.75;51.13
62402;BME280;48440;51.224;22.506;2023-05-02T04:26:46;99248.31;;;9.78;51.25
62402;BME280;48440;51.224;22.506;2023-05-02T04:29:13;99237.31;;;9.85;51.23
62402;BME280;48440;51.224;22.506;2023-05-02T04:31:42;99248.16;;;9.85;51.11
62402;BME280;48440;51.224;22.506;2023-05-02T04:34:08;99251.72;;;9.91;51.60
62402;BME280;48440;51.224;22.506;2023-05-02T04:36:34;99254.00;;;9.99;51.62
62402;BME280;48440;51.224;22.506;2023-05-02T04:39:03;99248.91;;;10.02;51.48
62402;BME280;48440;51.224;22.506;2023-05-02T04:41:32;99250.72;;;9.97;52.39
62402;BME280;48440;51.224;22.506;2023-05-02T04:43:58;99251.47;;;9.92;52.02
62402;BME280;48440;51.224;22.506;2023-05-02T04:46:24;99255.31;;;9.96;52.63
62402;BME280;48440;51.224;22.506;2023-05-02T04:48:49;99251.28;;;9.99;52.67
62402;BME280;48440;51.224;22.506;2023-05-02T04:51:18;99250.78;;;10.02;52.76
62402;BME280;48440;51.224;22.506;2023-05-02T04:53:48;99261.38;;;10.03;53.06
62402;BME280;48440;51.224;22.506;2023-05-02T04:56:14;99263.34;;;10.08;53.30
62402;BME280;48440;51.224;22.506;2023-05-02T04:58:40;99261.81;;;10.17;52.88
62402;BME280;48440;51.224;22.506;2023-05-02T05:01:05;99260.59;;;10.25;52.85
62402;BME280;48440;51.224;22.506;2023-05-02T05:03:31;99258.81;;;10.35;53.16
62402;BME280;48440;51.224;22.506;2023-05-02T05:05:59;99248.69;;;10.52;52.88
62402;BME280;48440;51.224;22.506;2023-05-02T05:08:26;99257.78;;;10.68;52.32
62402;BME280;48440;51.224;22.506;2023-05-02T05:10:52;99253.59;;;10.82;52.23
62402;BME280;48440;51.224;22.506;2023-05-02T05:13:17;99254.25;;;10.95;52.21
62402;BME280;48440;51.224;22.506;2023-05-02T05:15:43;99260.13;;;11.13;51.70
62402;BME280;48440;51.224;22.506;2023-05-02T05:18:09;99252.03;;;11.23;51.04
62402;BME280;48440;51.224;22.506;2023-05-02T05:20:37;99256.00;;;11.43;51.01
62402;BME280;48440;51.224;22.506;2023-05-02T05:23:05;99253.91;;;11.55;50.00
62402;BME280;48440;51.224;22.506;2023-05-02T05:25:39;99255.75;;;11.86;49.60
62402;BME280;48440;51.224;22.506;2023-05-02T05:28:10;99254.53;;;12.14;49.27
62402;BME280;48440;51.224;22.506;2023-05-02T05:30:38;99249.72;;;12.42;48.00
62402;BME280;48440;51.224;22.506;2023-05-02T05:33:06;99246.50;;;12.65;47.92
62402;BME280;48440;51.224;22.506;2023-05-02T05:35:38;99250.91;;;12.86;47.87
62402;BME280;48440;51.224;22.506;2023-05-02T05:38:06;99254.19;;;13.14;47.16
62402;BME280;48440;51.224;22.506;2023-05-02T05:40:33;99255.03;;;13.19;46.88
62402;BME280;48440;51.224;22.506;2023-05-02T05:43:02;99254.47;;;13.28;46.81
62402;BME280;48440;51.224;22.506;2023-05-02T05:45:28;99263.75;;;13.47;46.76
62402;BME280;48440;51.224;22.506;2023-05-02T05:47:56;99272.97;;;13.71;47.08
62402;BME280;48440;51.224;22.506;2023-05-02T05:50:22;99263.63;;;13.98;46.34
62402;BME280;48440;51.224;22.506;2023-05-02T05:52:58;99263.00;;;14.16;46.38
62402;BME280;48440;51.224;22.506;2023-05-02T05:55:29;99255.28;;;14.33;45.69
62402;BME280;48440;51.224;22.506;2023-05-02T05:57:56;99265.38;;;14.33;45.74
62402;BME280;48440;51.224;22.506;2023-05-02T06:00:24;99264.00;;;14.35;45.43
62402;BME280;48440;51.224;22.506;2023-05-02T06:02:50;99260.47;;;14.45;45.50
62402;BME280;48440;51.224;22.506;2023-05-02T06:05:16;99265.09;;;14.44;46.04
62402;BME280;48440;51.224;22.506;2023-05-02T06:07:42;99259.53;;;14.65;44.82
62402;BME280;48440;51.224;22.506;2023-05-02T06:10:08;99262.19;;;14.75;45.19
62402;BME280;48440;51.224;22.506;2023-05-02T06:12:35;99267.00;;;14.93;45.01
62402;BME280;48440;51.224;22.506;2023-05-02T06:15:18;99262.50;;;15.07;44.08
62402;BME280;48440;51.224;22.506;2023-05-02T06:17:55;99267.53;;;15.29;43.35
62402;BME280;48440;51.224;22.506;2023-05-02T06:20:21;99264.63;;;15.49;42.84
62402;BME280;48440;51.224;22.506;2023-05-02T06:22:48;99268.34;;;15.64;42.97
62402;BME280;48440;51.224;22.506;2023-05-02T06:25:27;99263.88;;;15.73;42.55
62402;BME280;48440;51.224;22.506;2023-05-02T06:28:03;99269.84;;;16.04;41.91
62402;BME280;48440;51.224;22.506;2023-05-02T06:33:31;99275.63;;;16.45;42.84
62402;BME280;48440;51.224;22.506;2023-05-02T06:51:27;99284.13;;;17.88;39.14
62402;BME280;48440;51.224;22.506;2023-05-02T06:53:58;99279.88;;;18.10;39.27
62402;BME280;48440;51.224;22.506;2023-05-02T07:41:06;99283.56;;;20.25;36.00
62402;BME280;48440;51.224;22.506;2023-05-02T07:43:33;99284.84;;;20.19;35.73
62402;BME280;48440;51.224;22.506;2023-05-02T07:53:51;99272.34;;;20.13;34.75
62402;BME280;48440;51.224;22.506;2023-05-02T07:56:31;99281.34;;;19.96;34.69
62402;BME280;48440;51.224;22.506;2023-05-02T07:58:59;99278.41;;;19.92;34.67
62402;BME280;48440;51.224;22.506;2023-05-02T08:01:28;99273.47;;;19.81;33.92
62402;BME280;48440;51.224;22.506;2023-05-02T08:03:54;99286.47;;;19.89;34.78
62402;BME280;48440;51.224;22.506;2023-05-02T08:06:19;99275.53;;;19.97;35.27
62402;BME280;48440;51.224;22.506;2023-05-02T08:08:44;99282.19;;;20.05;34.57
62402;BME280;48440;51.224;22.506;2023-05-02T08:11:10;99287.34;;;19.98;33.91
62402;BME280;48440;51.224;22.506;2023-05-02T08:13:35;99286.91;;;20.13;34.74
62402;BME280;48440;51.224;22.506;2023-05-02T08:16:00;99282.34;;;20.09;33.54
62402;BME280;48440;51.224;22.506;2023-05-02T08:18:29;99288.69;;;20.09;33.86
62402;BME280;48440;51.224;22.506;2023-05-02T08:20:54;99284.91;;;19.96;34.37
62402;BME280;48440;51.224;22.506;2023-05-02T08:23:22;99281.78;;;20.20;34.29
62402;BME280;48440;51.224;22.506;2023-05-02T08:25:48;99284.72;;;20.32;34.38
62402;BME280;48440;51.224;22.506;2023-05-02T08:28:13;99280.88;;;20.42;34.40
62402;BME280;48440;51.224;22.506;2023-05-02T08:30:39;99282.06;;;20.58;34.66
62402;BME280;48440;51.224;22.506;2023-05-02T08:33:04;99284.69;;;20.81;36.04
62402;BME280;48440;51.224;22.506;2023-05-02T08:35:30;99282.59;;;20.95;34.96
62402;BME280;48440;51.224;22.506;2023-05-02T08:37:55;99277.25;;;20.98;35.02
62402;BME280;48440;51.224;22.506;2023-05-02T08:40:21;99281.31;;;20.92;34.65
62402;BME280;48440;51.224;22.506;2023-05-02T08:42:53;99288.28;;;20.98;34.70
62402;BME280;48440;51.224;22.506;2023-05-02T08:45:18;99281.47;;;21.13;34.89
62402;BME280;48440;51.224;22.506;2023-05-02T08:47:44;99284.59;;;21.29;35.60
62402;BME280;48440;51.224;22.506;2023-05-02T08:50:11;99280.66;;;21.47;36.21
62402;BME280;48440;51.224;22.506;2023-05-02T08:52:37;99273.84;;;21.53;35.25
62402;BME280;48440;51.224;22.506;2023-05-02T08:55:04;99278.81;;;21.77;34.48
62402;BME280;48440;51.224;22.506;2023-05-02T08:57:31;99269.59;;;21.64;32.45
62402;BME280;48440;51.224;22.506;2023-05-02T09:00:02;99279.63;;;21.78;34.00
62402;BME280;48440;51.224;22.506;2023-05-02T09:05:06;99268.53;;;21.95;33.33
62402;BME280;48440;51.224;22.506;2023-05-02T09:07:46;99276.97;;;22.07;33.07
62402;BME280;48440;51.224;22.506;2023-05-02T09:10:13;99269.09;;;22.18;32.50
62402;BME280;48440;51.224;22.506;2023-05-02T09:12:38;99276.97;;;22.07;32.36
62402;BME280;48440;51.224;22.506;2023-05-02T09:15:11;99274.63;;;22.18;32.16
62402;BME280;48440;51.224;22.506;2023-05-02T09:17:42;99270.63;;;22.07;30.88
62402;BME280;48440;51.224;22.506;2023-05-02T09:20:09;99281.19;;;22.05;31.67
62402;BME280;48440;51.224;22.506;2023-05-02T09:22:39;99267.38;;;22.05;31.98
62402;BME280;48440;51.224;22.506;2023-05-02T09:25:16;99272.03;;;22.13;32.11
62402;BME280;48440;51.224;22.506;2023-05-02T09:27:55;99270.75;;;22.10;31.45
62402;BME280;48440;51.224;22.506;2023-05-02T09:30:24;99265.06;;;22.15;32.30
62402;BME280;48440;51.224;22.506;2023-05-02T09:32:51;99273.31;;;22.24;33.59
62402;BME280;48440;51.224;22.506;2023-05-02T09:35:18;99276.88;;;22.24;33.22
62402;BME280;48440;51.224;22.506;2023-05-02T09:37:54;99272.19;;;22.16;31.69
62402;BME280;48440;51.224;22.506;2023-05-02T09:40:20;99270.56;;;22.15;31.30
62402;BME280;48440;51.224;22.506;2023-05-02T09:42:47;99283.97;;;22.05;32.12
62402;BME280;48440;51.224;22.506;2023-05-02T09:45:24;99270.97;;;21.96;32.36
62402;BME280;48440;51.224;22.506;2023-05-02T09:47:50;99281.69;;;22.07;32.87
62402;BME280;48440;51.224;22.506;2023-05-02T09:50:35;99281.13;;;22.22;32.80
62402;BME280;48440;51.224;22.506;2023-05-02T09:53:08;99279.28;;;22.34;32.28
62402;BME280;48440;51.224;22.506;2023-05-02T09:55:35;99284.00;;;22.34;32.51
62402;BME280;48440;51.224;22.506;2023-05-02T09:58:01;99281.03;;;22.39;34.09
62402;BME280;48440;51.224;22.506;2023-05-02T10:00:42;99287.84;;;22.42;34.31
62402;BME280;48440;51.224;22.506;2023-05-02T10:03:09;99290.03;;;22.27;33.04
62402;BME280;48440;51.224;22.506;2023-05-02T10:05:38;99285.88;;;22.42;34.22
62402;BME280;48440;51.224;22.506;2023-05-02T10:08:05;99285.22;;;22.45;33.63
62402;BME280;48440;51.224;22.506;2023-05-02T10:10:32;99287.22;;;22.36;34.20
62402;BME280;48440;51.224;22.506;2023-05-02T10:13:02;99289.44;;;22.13;33.15
62402;BME280;48440;51.224;22.506;2023-05-02T10:15:30;99280.53;;;22.08;33.36
62402;BME280;48440;51.224;22.506;2023-05-02T10:17:58;99285.28;;;21.90;34.38
62402;BME280;48440;51.224;22.506;2023-05-02T10:20:34;99286.81;;;21.61;33.77
62402;BME280;48440;51.224;22.506;2023-05-02T10:23:00;99284.06;;;21.44;35.29
62402;BME280;48440;51.224;22.506;2023-05-02T10:25:27;99283.44;;;21.21;35.02
62402;BME280;48440;51.224;22.506;2023-05-02T10:27:57;99283.06;;;21.06;35.10
62402;BME280;48440;51.224;22.506;2023-05-02T10:30:24;99282.44;;;20.91;36.27
62402;BME280;48440;51.224;22.506;2023-05-02T10:32:51;99282.25;;;20.71;35.48
62402;BME280;48440;51.224;22.506;2023-05-02T10:35:20;99283.00;;;20.54;35.65
62402;BME280;48440;51.224;22.506;2023-05-02T10:37:46;99288.34;;;20.42;36.10
62402;BME280;48440;51.224;22.506;2023-05-02T10:40:13;99282.91;;;20.28;35.86
62402;BME280;48440;51.224;22.506;2023-05-02T10:42:42;99275.09;;;20.13;37.02
62402;BME280;48440;51.224;22.506;2023-05-02T10:45:32;99278.28;;;20.06;37.19
62402;BME280;48440;51.224;22.506;2023-05-02T10:50:44;99285.56;;;20.02;38.00
62402;BME280;48440;51.224;22.506;2023-05-02T10:58:42;99287.63;;;20.36;38.68
62402;BME280;48440;51.224;22.506;2023-05-02T11:06:18;99295.84;;;20.58;36.90
62402;BME280;48440;51.224;22.506;2023-05-02T11:08:44;99294.22;;;20.57;36.81
62402;BME280;48440;51.224;22.506;2023-05-02T11:11:40;99292.59;;;20.56;37.48
62402;BME280;48440;51.224;22.506;2023-05-02T11:14:06;99291.63;;;20.52;36.38
62402;BME280;48440;51.224;22.506;2023-05-02T11:17:09;99291.91;;;20.42;36.09
62402;BME280;48440;51.224;22.506;2023-05-02T11:24:45;99296.44;;;20.38;36.93
62402;BME280;48440;51.224;22.506;2023-05-02T11:29:55;99290.13;;;20.38;37.29
62402;BME280;48440;51.224;22.506;2023-05-02T11:32:21;99283.97;;;20.41;38.16
62402;BME280;48440;51.224;22.506;2023-05-02T11:34:48;99282.53;;;20.43;38.44
62402;BME280;48440;51.224;22.506;2023-05-02T11:37:18;99286.34;;;20.33;36.97
62402;BME280;48440;51.224;22.506;2023-05-02T11:39:45;99284.72;;;20.32;38.00
62402;BME280;48440;51.224;22.506;2023-05-02T11:42:27;99284.88;;;20.36;37.80
62402;BME280;48440;51.224;22.506;2023-05-02T11:44:55;99286.97;;;20.30;37.29
62402;BME280;48440;51.224;22.506;2023-05-02T11:47:21;99284.38;;;20.25;37.22
62402;BME280;48440;51.224;22.506;2023-05-02T11:49:47;99284.16;;;20.13;38.43
62402;BME280;48440;51.224;22.506;2023-05-02T11:52:14;99286.06;;;20.04;38.34
62402;BME280;48440;51.224;22.506;2023-05-02T11:54:40;99279.59;;;20.00;38.22
62402;BME280;48440;51.224;22.506;2023-05-02T11:57:05;99293.00;;;20.02;38.36
62402;BME280;48440;51.224;22.506;2023-05-02T11:59:48;99288.50;;;20.06;38.20
62402;BME280;48440;51.224;22.506;2023-05-02T12:02:13;99290.63;;;20.09;37.88
62402;BME280;48440;51.224;22.506;2023-05-02T12:04:42;99281.41;;;20.13;37.59
62402;BME280;48440;51.224;22.506;2023-05-02T12:07:11;99277.25;;;20.24;38.42
62402;BME280;48440;51.224;22.506;2023-05-02T12:09:49;99288.78;;;20.35;37.74
62402;BME280;48440;51.224;22.506;2023-05-02T12:12:19;99281.06;;;20.46;38.25
62402;BME280;48440;51.224;22.506;2023-05-02T12:14:45;99289.00;;;20.47;37.96
62402;BME280;48440;51.224;22.506;2023-05-02T12:17:10;99280.56;;;20.44;38.05
62402;BME280;48440;51.224;22.506;2023-05-02T12:19:36;99281.88;;;20.46;38.10
62402;BME280;48440;51.224;22.506;2023-05-02T12:22:02;99280.25;;;20.45;38.11
62402;BME280;48440;51.224;22.506;2023-05-02T12:24:28;99283.19;;;20.49;38.12
62402;BME280;48440;51.224;22.506;2023-05-02T12:29:45;99285.13;;;20.57;38.68
62402;BME280;48440;51.224;22.506;2023-05-02T12:32:11;99289.84;;;20.56;38.91
62402;BME280;48440;51.224;22.506;2023-05-02T12:34:38;99289.19;;;20.59;38.80
62402;BME280;48440;51.224;22.506;2023-05-02T12:37:05;99275.25;;;20.56;39.19
62402;BME280;48440;51.224;22.506;2023-05-02T12:39:37;99282.56;;;20.52;38.54
62402;BME280;48440;51.224;22.506;2023-05-02T12:42:09;99280.94;;;20.51;38.87
62402;BME280;48440;51.224;22.506;2023-05-02T12:44:39;99282.38;;;20.48;39.05
62402;BME280;48440;51.224;22.506;2023-05-02T12:47:05;99283.00;;;20.45;40.14
62402;BME280;48440;51.224;22.506;2023-05-02T12:49:32;99280.25;;;20.45;39.98
62402;BME280;48440;51.224;22.506;2023-05-02T12:51:57;99279.31;;;20.50;39.66
62402;BME280;48440;51.224;22.506;2023-05-02T12:54:23;99271.34;;;20.57;39.64
62402;BME280;48440;51.224;22.506;2023-05-02T12:56:50;99282.22;;;20.62;39.83
62402;BME280;48440;51.224;22.506;2023-05-02T12:59:32;99275.94;;;20.70;39.07
62402;BME280;48440;51.224;22.506;2023-05-02T13:01:58;99267.34;;;20.72;38.67
62402;BME280;48440;51.224;22.506;2023-05-02T13:04:38;99267.19;;;20.77;38.51
62402;BME280;48440;51.224;22.506;2023-05-02T13:07:05;99261.19;;;20.75;38.16
62402;BME280;48440;51.224;22.506;2023-05-02T13:09:31;99263.59;;;20.67;38.37
62402;BME280;48440;51.224;22.506;2023-05-02T13:11:56;99259.03;;;20.54;37.43
62402;BME280;48440;51.224;22.506;2023-05-02T13:14:24;99260.81;;;20.50;38.26
62402;BME280;48440;51.224;22.506;2023-05-02T13:16:49;99259.03;;;20.46;38.87
62402;BME280;48440;51.224;22.506;2023-05-02T13:19:18;99264.53;;;20.46;38.94
62402;BME280;48440;51.224;22.506;2023-05-02T13:21:43;99252.22;;;20.52;38.58
62402;BME280;48440;51.224;22.506;2023-05-02T13:24:09;99253.84;;;20.61;38.22
62402;BME280;48440;51.224;22.506;2023-05-02T13:26:35;99245.59;;;20.61;38.18
62402;BME280;48440;51.224;22.506;2023-05-02T13:29:00;99248.00;;;20.63;37.95
62402;BME280;48440;51.224;22.506;2023-05-02T13:31:26;99251.13;;;20.70;38.61
62402;BME280;48440;51.224;22.506;2023-05-02T13:33:51;99240.41;;;20.69;36.94
62402;BME280;48440;51.224;22.506;2023-05-02T13:36:16;99248.53;;;20.74;37.53
62402;BME280;48440;51.224;22.506;2023-05-02T13:38:42;99246.09;;;20.72;37.06
62402;BME280;48440;51.224;22.506;2023-05-02T13:41:07;99246.72;;;20.69;37.20
62402;BME280;48440;51.224;22.506;2023-05-02T13:43:33;99243.47;;;20.67;37.04
62402;BME280;48440;51.224;22.506;2023-05-02T13:45:58;99245.25;;;20.63;36.78
62402;BME280;48440;51.224;22.506;2023-05-02T13:48:24;99247.22;;;20.62;36.49
62402;BME280;48440;51.224;22.506;2023-05-02T13:50:49;99249.16;;;20.62;37.05
62402;BME280;48440;51.224;22.506;2023-05-02T13:53:15;99255.63;;;20.57;36.45
62402;BME280;48440;51.224;22.506;2023-05-02T13:55:40;99245.56;;;20.53;37.65
62402;BME280;48440;51.224;22.506;2023-05-02T13:58:06;99249.13;;;20.53;37.15
62402;BME280;48440;51.224;22.506;2023-05-02T14:00:32;99243.78;;;20.57;36.94
62402;BME280;48440;51.224;22.506;2023-05-02T14:02:58;99247.03;;;20.59;37.19
62402;BME280;48440;51.224;22.506;2023-05-02T14:05:24;99247.84;;;20.59;37.19
62402;BME280;48440;51.224;22.506;2023-05-02T14:07:49;99245.91;;;20.60;37.01
62402;BME280;48440;51.224;22.506;2023-05-02T14:10:17;99248.00;;;20.63;37.20
62402;BME280;48440;51.224;22.506;2023-05-02T14:12:42;99232.13;;;20.60;36.93
62402;BME280;48440;51.224;22.506;2023-05-02T14:15:08;99239.09;;;20.57;36.85
62402;BME280;48440;51.224;22.506;2023-05-02T14:17:34;99246.53;;;20.57;36.28
62402;BME280;48440;51.224;22.506;2023-05-02T14:19:59;99240.72;;;20.58;36.64
62402;BME280;48440;51.224;22.506;2023-05-02T14:22:25;99252.22;;;20.60;36.62
62402;BME280;48440;51.224;22.506;2023-05-02T14:24:51;99251.41;;;20.51;36.02
62402;BME280;48440;51.224;22.506;2023-05-02T14:27:17;99243.16;;;20.51;36.45
62402;BME280;48440;51.224;22.506;2023-05-02T14:29:46;99254.63;;;20.53;36.31
62402;BME280;48440;51.224;22.506;2023-05-02T14:32:12;99257.41;;;20.53;36.69
62402;BME280;48440;51.224;22.506;2023-05-02T14:34:38;99253.81;;;20.53;36.44
62402;BME280;48440;51.224;22.506;2023-05-02T14:37:04;99249.47;;;20.52;37.31
62402;BME280;48440;51.224;22.506;2023-05-02T14:39:29;99260.16;;;20.53;37.45
62402;BME280;48440;51.224;22.506;2023-05-02T14:41:55;99253.03;;;20.52;37.66
62402;BME280;48440;51.224;22.506;2023-05-02T14:44:20;99255.00;;;20.52;37.75
62402;BME280;48440;51.224;22.506;2023-05-02T14:46:46;99245.91;;;20.51;37.53
62402;BME280;48440;51.224;22.506;2023-05-02T14:49:11;99254.00;;;20.48;37.56
62402;BME280;48440;51.224;22.506;2023-05-02T14:51:37;99252.88;;;20.49;37.47
62402;BME280;48440;51.224;22.506;2023-05-02T14:54:04;99259.34;;;20.44;37.55
62402;BME280;48440;51.224;22.506;2023-05-02T14:56:33;99260.09;;;20.36;37.36
62402;BME280;48440;51.224;22.506;2023-05-02T14:58:59;99262.03;;;20.36;36.84
62402;BME280;48440;51.224;22.506;2023-05-02T15:01:24;99262.16;;;20.30;36.38
62402;BME280;48440;51.224;22.506;2023-05-02T15:03:50;99268.97;;;20.24;37.33
62402;BME280;48440;51.224;22.506;2023-05-02T15:06:16;99267.00;;;20.16;38.82
62402;BME280;48440;51.224;22.506;2023-05-02T15:08:42;99270.06;;;20.15;39.26
62402;BME280;48440;51.224;22.506;2023-05-02T15:11:09;99265.19;;;20.12;39.88
62402;BME280;48440;51.224;22.506;2023-05-02T15:13:35;99272.78;;;20.06;40.25
62402;BME280;48440;51.224;22.506;2023-05-02T15:16:02;99271.47;;;20.04;40.41
62402;BME280;48440;51.224;22.506;2023-05-02T15:18:28;99271.31;;;20.00;40.98
62402;BME280;48440;51.224;22.506;2023-05-02T15:20:53;99275.19;;;19.99;42.15
62402;BME280;48440;51.224;22.506;2023-05-02T15:23:19;99278.09;;;19.94;42.86
62402;BME280;48440;51.224;22.506;2023-05-02T15:25:44;99274.84;;;19.92;42.90